sensor_id;sensor_type;location;lat;lon;timestamp;pressure;altitude;pressure_sealevel;temperature;humidity
71907;BME280;59781;52.090;5.030;2023-02-18T00:01:11;102133.97;;;9.70;100.00
71907;BME280;59781;52.090;5.030;2023-02-18T00:03:38;102133.09;;;10.00;100.00
71907;BME280;59781;52.090;5.030;2023-02-18T00:06:26;102133.09;;;9.69;100.00
71907;BME280;59781;52.090;5.030;2023-02-18T00:08:55;102139.34;;;9.70;100.00
71907;BME280;59781;52.090;5.030;2023-02-18T00:11:23;102146.00;;;9.45;100.00
71907;BME280;59781;52.090;5.030;2023-02-18T00:13:54;102139.31;;;9.39;100.00
71907;BME280;59781;52.090;5.030;2023-02-18T00:16:23;102142.00;;;9.39;100.00
71907;BME280;59781;52.090;5.030;2023-02-18T00:18:51;102126.03;;;9.68;100.00
71907;BME280;59781;52.090;5.030;2023-02-18T00:21:20;102132.50;;;9.87;100.00
71907;BME280;59781;52.090;5.030;2023-02-18T00:23:46;102124.84;;;9.61;100.00
71907;BME280;59781;52.090;5.030;2023-02-18T00:26:15;102139.38;;;9.49;100.00
71907;BME280;59781;52.090;5.030;2023-02-18T00:28:43;102126.59;;;9.72;100.00
71907;BME280;59781;52.090;5.030;2023-02-18T00:31:13;102123.84;;;9.93;100.00
71907;BME280;59781;52.090;5.030;2023-02-18T00:33:42;102119.97;;;9.76;100.00
71907;BME280;59781;52.090;5.030;2023-02-18T00:36:12;102123.41;;;9.57;100.00
71907;BME280;59781;52.090;5.030;2023-02-18T00:38:45;102122.88;;;9.63;100.00
71907;BME280;59781;52.090;5.030;2023-02-18T00:41:13;102117.25;;;9.66;100.00
71907;BME280;59781;52.090;5.030;2023-02-18T00:43:40;102113.25;;;9.40;100.00
71907;BME280;59781;52.090;5.030;2023-02-18T00:46:06;102110.66;;;9.29;100.00
71907;BME280;59781;52.090;5.030;2023-02-18T00:48:33;102110.31;;;9.22;100.00
71907;BME280;59781;52.090;5.030;2023-02-18T00:51:00;102112.81;;;9.35;100.00
71907;BME280;59781;52.090;5.030;2023-02-18T00:53:27;102110.00;;;9.36;100.00
71907;BME280;59781;52.090;5.030;2023-02-18T00:55:54;102101.34;;;9.63;100.00
71907;BME280;59781;52.090;5.030;2023-02-18T00:58:20;102105.69;;;9.75;100.00
71907;BME280;59781;52.090;5.030;2023-02-18T01:00:46;102104.53;;;9.47;100.00
71907;BME280;59781;52.090;5.030;2023-02-18T01:03:13;102110.00;;;9.36;100.00
71907;BME280;59781;52.090;5.030;2023-02-18T01:05:40;102108.69;;;9.31;100.00
71907;BME280;59781;52.090;5.030;2023-02-18T01:08:09;102104.97;;;9.73;100.00
71907;BME280;59781;52.090;5.030;2023-02-18T01:10:40;102104.25;;;9.51;100.00
71907;BME280;59781;52.090;5.030;2023-02-18T01:13:08;102113.66;;;9.56;100.00
71907;BME280;59781;52.090;5.030;2023-02-18T01:15:33;102111.84;;;9.36;100.00
71907;BME280;59781;52.090;5.030;2023-02-18T01:17:59;102110.66;;;9.29;100.00
71907;BME280;59781;52.090;5.030;2023-02-18T01:20:25;102114.53;;;9.36;100.00
71907;BME280;59781;52.090;5.030;2023-02-18T01:22:51;102102.25;;;9.22;100.00
71907;BME280;59781;52.090;5.030;2023-02-18T01:25:17;102101.75;;;9.07;100.00
71907;BME280;59781;52.090;5.030;2023-02-18T01:27:43;102100.03;;;9.27;100.00
71907;BME280;59781;52.090;5.030;2023-02-18T01:30:13;102085.84;;;9.46;100.00
71907;BME280;59781;52.090;5.030;2023-02-18T01:32:40;102085.81;;;9.36;100.00
71907;BME280;59781;52.090;5.030;2023-02-18T01:35:11;102081.41;;;9.35;100.00
71907;BME280;59781;52.090;5.030;2023-02-18T01:37:39;102077.31;;;9.41;100.00
71907;BME280;59781;52.090;5.030;2023-02-18T01:40:05;102077.22;;;9.22;100.00
71907;BME280;59781;52.090;5.030;2023-02-18T01:42:34;102073.53;;;9.23;100.00
71907;BME280;59781;52.090;5.030;2023-02-18T01:48:19;102082.34;;;9.25;100.00
71907;BME280;59781;52.090;5.030;2023-02-18T01:50:55;102086.13;;;9.22;100.00
71907;BME280;59781;52.090;5.030;2023-02-18T01:59:12;102064.19;;;9.17;100.00
71907;BME280;59781;52.090;5.030;2023-02-18T02:01:44;102064.69;;;9.62;100.00
71907;BME280;59781;52.090;5.030;2023-02-18T02:04:11;102060.34;;;9.40;100.00
71907;BME280;59781;52.090;5.030;2023-02-18T02:06:39;102057.06;;;9.67;100.00
71907;BME280;59781;52.090;5.030;2023-02-18T02:09:10;102051.44;;;9.80;100.00
71907;BME280;59781;52.090;5.030;2023-02-18T02:27:17;101999.56;;;9.59;100.00
71907;BME280;59781;52.090;5.030;2023-02-18T02:30:11;101993.69;;;9.74;100.00
71907;BME280;59781;52.090;5.030;2023-02-18T02:33:19;101986.47;;;9.75;100.00
71907;BME280;59781;52.090;5.030;2023-02-18T02:41:41;101967.75;;;9.64;100.00
71907;BME280;59781;52.090;5.030;2023-02-18T02:44:35;101959.94;;;9.61;100.00
71907;BME280;59781;52.090;5.030;2023-02-18T02:47:18;101966.94;;;9.42;100.00
71907;BME280;59781;52.090;5.030;2023-02-18T02:50:09;101951.38;;;9.36;100.00
71907;BME280;59781;52.090;5.030;2023-02-18T02:52:49;101947.91;;;9.55;100.00
71907;BME280;59781;52.090;5.030;2023-02-18T02:55:19;101943.13;;;9.68;100.00
71907;BME280;59781;52.090;5.030;2023-02-18T02:57:53;101925.72;;;9.82;100.00
71907;BME280;59781;52.090;5.030;2023-02-18T03:00:49;101926.28;;;9.76;100.00
71907;BME280;59781;52.090;5.030;2023-02-18T03:11:47;101943.50;;;9.54;100.00
71907;BME280;59781;52.090;5.030;2023-02-18T03:14:43;101937.44;;;9.62;100.00
71907;BME280;59781;52.090;5.030;2023-02-18T03:17:29;101930.47;;;9.49;100.00
71907;BME280;59781;52.090;5.030;2023-02-18T03:20:07;101927.22;;;9.46;100.00
71907;BME280;59781;52.090;5.030;2023-02-18T03:22:46;101921.88;;;9.65;100.00
71907;BME280;59781;52.090;5.030;2023-02-18T03:25:18;101910.97;;;9.57;100.00
71907;BME280;59781;52.090;5.030;2023-02-18T03:27:52;101908.53;;;9.44;100.00
71907;BME280;59781;52.090;5.030;2023-02-18T03:30:27;101896.50;;;9.48;100.00
71907;BME280;59781;52.090;5.030;2023-02-18T03:33:08;101892.13;;;9.57;100.00
71907;BME280;59781;52.090;5.030;2023-02-18T03:35:41;101891.13;;;9.48;100.00
71907;BME280;59781;52.090;5.030;2023-02-18T03:38:31;101884.59;;;9.51;100.00
71907;BME280;59781;52.090;5.030;2023-02-18T03:41:02;101875.41;;;9.63;100.00
71907;BME280;59781;52.090;5.030;2023-02-18T03:43:30;101873.31;;;9.57;100.00
71907;BME280;59781;52.090;5.030;2023-02-18T03:45:57;101860.56;;;9.69;100.00
71907;BME280;59781;52.090;5.030;2023-02-18T03:48:24;101856.88;;;9.70;100.00
71907;BME280;59781;52.090;5.030;2023-02-18T03:50:51;101861.09;;;9.53;100.00
71907;BME280;59781;52.090;5.030;2023-02-18T03:53:17;101851.78;;;9.47;100.00
71907;BME280;59781;52.090;5.030;2023-02-18T03:55:42;101849.94;;;9.58;100.00
71907;BME280;59781;52.090;5.030;2023-02-18T03:58:08;101846.41;;;9.47;100.00
71907;BME280;59781;52.090;5.030;2023-02-18T04:00:34;101858.69;;;9.40;100.00
71907;BME280;59781;52.090;5.030;2023-02-18T04:02:59;101850.09;;;9.56;100.00
71907;BME280;59781;52.090;5.030;2023-02-18T04:05:25;101847.13;;;9.59;100.00
71907;BME280;59781;52.090;5.030;2023-02-18T04:07:51;101855.34;;;9.67;100.00
71907;BME280;59781;52.090;5.030;2023-02-18T04:10:17;101851.50;;;9.51;100.00
71907;BME280;59781;52.090;5.030;2023-02-18T04:12:42;101860.41;;;9.61;100.00
71907;BME280;59781;52.090;5.030;2023-02-18T04:15:08;101854.66;;;9.75;100.00
71907;BME280;59781;52.090;5.030;2023-02-18T04:17:34;101845.84;;;9.63;100.00
71907;BME280;59781;52.090;5.030;2023-02-18T04:20:00;101844.28;;;9.90;100.00
71907;BME280;59781;52.090;5.030;2023-02-18T04:22:25;101836.91;;;9.72;100.00
71907;BME280;59781;52.090;5.030;2023-02-18T04:24:51;101833.28;;;9.73;100.00
71907;BME280;59781;52.090;5.030;2023-02-18T04:27:17;101831.13;;;9.58;100.00
71907;BME280;59781;52.090;5.030;2023-02-18T04:29:43;101836.22;;;9.80;100.00
71907;BME280;59781;52.090;5.030;2023-02-18T04:32:08;101844.03;;;9.64;100.00
71907;BME280;59781;52.090;5.030;2023-02-18T04:34:34;101835.22;;;9.62;100.00
71907;BME280;59781;52.090;5.030;2023-02-18T04:37:00;101824.75;;;9.59;100.00
71907;BME280;59781;52.090;5.030;2023-02-18T04:39:26;101821.78;;;9.62;100.00
71907;BME280;59781;52.090;5.030;2023-02-18T04:41:52;101830.56;;;9.64;100.00
71907;BME280;59781;52.090;5.030;2023-02-18T04:44:17;101817.69;;;9.67;100.00
71907;BME280;59781;52.090;5.030;2023-02-18T04:46:43;101809.19;;;9.72;100.00
71907;BME280;59781;52.090;5.030;2023-02-18T04:49:09;101811.44;;;9.47;100.00
71907;BME280;59781;52.090;5.030;2023-02-18T04:51:34;101797.41;;;9.63;100.00
71907;BME280;59781;52.090;5.030;2023-02-18T04:54:02;101803.09;;;9.60;100.00
71907;BME280;59781;52.090;5.030;2023-02-18T04:56:29;101789.22;;;9.74;100.00
71907;BME280;59781;52.090;5.030;2023-02-18T04:58:54;101788.25;;;9.56;100.00
71907;BME280;59781;52.090;5.030;2023-02-18T05:01:20;101796.88;;;9.60;100.00
71907;BME280;59781;52.090;5.030;2023-02-18T05:03:46;101803.38;;;9.76;100.00
71907;BME280;59781;52.090;5.030;2023-02-18T05:06:12;101808.63;;;9.68;100.00
71907;BME280;59781;52.090;5.030;2023-02-18T05:08:37;101803.25;;;9.78;100.00
71907;BME280;59781;52.090;5.030;2023-02-18T05:11:07;101807.34;;;9.72;100.00
71907;BME280;59781;52.090;5.030;2023-02-18T05:13:33;101807.47;;;9.81;100.00
71907;BME280;59781;52.090;5.030;2023-02-18T05:15:59;101798.00;;;9.86;100.00
71907;BME280;59781;52.090;5.030;2023-02-18T05:18:25;101790.06;;;9.85;100.00
71907;BME280;59781;52.090;5.030;2023-02-18T05:20:51;101790.06;;;9.85;100.00
71907;BME280;59781;52.090;5.030;2023-02-18T05:23:17;101786.38;;;9.86;100.00
71907;BME280;59781;52.090;5.030;2023-02-18T05:25:44;101789.78;;;9.88;100.00
71907;BME280;59781;52.090;5.030;2023-02-18T05:28:10;101783.13;;;9.82;100.00
71907;BME280;59781;52.090;5.030;2023-02-18T05:30:36;101775.88;;;9.92;100.00
71907;BME280;59781;52.090;5.030;2023-02-18T05:33:01;101780.72;;;9.79;100.00
71907;BME280;59781;52.090;5.030;2023-02-18T05:35:27;101783.94;;;9.92;100.00
71907;BME280;59781;52.090;5.030;2023-02-18T05:37:53;101782.00;;;9.94;100.00
71907;BME280;59781;52.090;5.030;2023-02-18T05:40:18;101763.16;;;9.85;100.00
71907;BME280;59781;52.090;5.030;2023-02-18T05:42:44;101744.59;;;9.91;100.00
71907;BME280;59781;52.090;5.030;2023-02-18T05:45:10;101758.78;;;9.84;100.00
71907;BME280;59781;52.090;5.030;2023-02-18T05:47:38;101764.28;;;9.92;100.00
71907;BME280;59781;52.090;5.030;2023-02-18T05:50:05;101765.44;;;9.80;100.00
71907;BME280;59781;52.090;5.030;2023-02-18T05:52:31;101759.75;;;9.73;100.00
71907;BME280;59781;52.090;5.030;2023-02-18T05:54:57;101762.59;;;9.81;100.00
71907;BME280;59781;52.090;5.030;2023-02-18T05:57:22;101756.47;;;9.98;100.00
71907;BME280;59781;52.090;5.030;2023-02-18T05:59:48;101738.50;;;9.89;100.00
71907;BME280;59781;52.090;5.030;2023-02-18T06:02:14;101741.09;;;9.71;100.00
71907;BME280;59781;52.090;5.030;2023-02-18T06:04:40;101747.28;;;9.82;100.00
71907;BME280;59781;52.090;5.030;2023-02-18T06:07:06;101750.81;;;9.92;100.00
71907;BME280;59781;52.090;5.030;2023-02-18T06:09:32;101748.09;;;10.01;100.00
71907;BME280;59781;52.090;5.030;2023-02-18T06:11:58;101729.88;;;9.95;100.00
71907;BME280;59781;52.090;5.030;2023-02-18T06:14:23;101742.31;;;9.96;100.00
71907;BME280;59781;52.090;5.030;2023-02-18T06:16:49;101729.88;;;9.95;100.00
71907;BME280;59781;52.090;5.030;2023-02-18T06:19:15;101746.97;;;10.14;100.00
71907;BME280;59781;52.090;5.030;2023-02-18T06:21:41;101743.69;;;10.10;100.00
71907;BME280;59781;52.090;5.030;2023-02-18T06:24:06;101742.88;;;9.90;100.00
71907;BME280;59781;52.090;5.030;2023-02-18T06:26:32;101754.63;;;10.09;100.00
71907;BME280;59781;52.090;5.030;2023-02-18T06:28:58;101741.59;;;10.04;100.00
71907;BME280;59781;52.090;5.030;2023-02-18T06:31:24;101752.97;;;9.88;100.00
71907;BME280;59781;52.090;5.030;2023-02-18T06:33:50;101749.16;;;9.71;100.00
71907;BME280;59781;52.090;5.030;2023-02-18T06:36:15;101744.47;;;9.83;100.00
71907;BME280;59781;52.090;5.030;2023-02-18T06:38:44;101734.28;;;9.77;100.00
71907;BME280;59781;52.090;5.030;2023-02-18T06:41:12;101755.81;;;9.77;100.00
71907;BME280;59781;52.090;5.030;2023-02-18T06:43:38;101754.53;;;9.81;100.00
71907;BME280;59781;52.090;5.030;2023-02-18T06:46:04;101744.63;;;9.72;100.00
71907;BME280;59781;52.090;5.030;2023-02-18T06:48:30;101742.53;;;9.66;100.00
71907;BME280;59781;52.090;5.030;2023-02-18T06:50:57;101749.56;;;9.86;100.00
71907;BME280;59781;52.090;5.030;2023-02-18T06:53:23;101744.59;;;9.91;100.00
71907;BME280;59781;52.090;5.030;2023-02-18T06:55:48;101743.59;;;9.92;100.00
71907;BME280;59781;52.090;5.030;2023-02-18T06:58:15;101731.41;;;9.98;100.00
71907;BME280;59781;52.090;5.030;2023-02-18T07:00:41;101737.22;;;10.03;100.00
71907;BME280;59781;52.090;5.030;2023-02-18T07:03:06;101724.91;;;9.91;100.00
71907;BME280;59781;52.090;5.030;2023-02-18T07:05:32;101730.56;;;9.97;100.00
71907;BME280;59781;52.090;5.030;2023-02-18T07:07:58;101730.84;;;10.04;100.00
71907;BME280;59781;52.090;5.030;2023-02-18T07:10:24;101741.75;;;9.93;100.00
71907;BME280;59781;52.090;5.030;2023-02-18T07:12:50;101747.56;;;9.88;100.00
71907;BME280;59781;52.090;5.030;2023-02-18T07:15:16;101739.34;;;9.90;100.00
71907;BME280;59781;52.090;5.030;2023-02-18T07:17:42;101755.22;;;9.83;100.00
71907;BME280;59781;52.090;5.030;2023-02-18T07:20:08;101733.28;;;9.78;100.00
71907;BME280;59781;52.090;5.030;2023-02-18T07:22:34;101742.66;;;9.84;100.00
71907;BME280;59781;52.090;5.030;2023-02-18T07:25:00;101739.94;;;9.84;100.00
71907;BME280;59781;52.090;5.030;2023-02-18T07:27:26;101728.44;;;9.91;100.00
71907;BME280;59781;52.090;5.030;2023-02-18T07:29:52;101728.47;;;9.82;100.00
71907;BME280;59781;52.090;5.030;2023-02-18T07:32:18;101709.38;;;9.75;100.00
71907;BME280;59781;52.090;5.030;2023-02-18T07:34:44;101717.56;;;9.83;100.00
71907;BME280;59781;52.090;5.030;2023-02-18T07:37:10;101710.47;;;9.82;100.00
71907;BME280;59781;52.090;5.030;2023-02-18T07:39:41;101708.94;;;9.80;100.00
71907;BME280;59781;52.090;5.030;2023-02-18T07:42:09;101703.84;;;9.86;100.00
71907;BME280;59781;52.090;5.030;2023-02-18T07:44:36;101715.03;;;9.72;100.00
71907;BME280;59781;52.090;5.030;2023-02-18T07:47:05;101715.31;;;9.78;100.00
71907;BME280;59781;52.090;5.030;2023-02-18T07:49:32;101715.00;;;9.82;100.00
71907;BME280;59781;52.090;5.030;2023-02-18T07:51:58;101707.91;;;9.90;100.00
71907;BME280;59781;52.090;5.030;2023-02-18T07:54:25;101693.28;;;10.02;100.00
71907;BME280;59781;52.090;5.030;2023-02-18T07:56:51;101710.38;;;9.84;100.00
71907;BME280;59781;52.090;5.030;2023-02-18T07:59:17;101712.63;;;9.69;100.00
71907;BME280;59781;52.090;5.030;2023-02-18T08:01:43;101721.25;;;9.72;100.00
71907;BME280;59781;52.090;5.030;2023-02-18T08:04:09;101715.03;;;9.72;100.00
71907;BME280;59781;52.090;5.030;2023-02-18T08:06:38;101739.13;;;9.64;100.00
71907;BME280;59781;52.090;5.030;2023-02-18T08:09:06;101731.91;;;9.45;100.00
71907;BME280;59781;52.090;5.030;2023-02-18T08:11:32;101740.00;;;9.45;100.00
71907;BME280;59781;52.090;5.030;2023-02-18T08:13:59;101717.63;;;9.54;100.00
71907;BME280;59781;52.090;5.030;2023-02-18T08:16:25;101719.59;;;9.52;100.00
71907;BME280;59781;52.090;5.030;2023-02-18T08:18:52;101720.31;;;9.54;100.00
71907;BME280;59781;52.090;5.030;2023-02-18T08:21:21;101726.41;;;9.46;100.00
71907;BME280;59781;52.090;5.030;2023-02-18T08:23:48;101721.72;;;9.39;100.00
71907;BME280;59781;52.090;5.030;2023-02-18T08:26:14;101723.97;;;9.43;100.00
71907;BME280;59781;52.090;5.030;2023-02-18T08:28:42;101722.00;;;9.55;100.00
71907;BME280;59781;52.090;5.030;2023-02-18T08:31:18;101732.19;;;9.52;100.00
71907;BME280;59781;52.090;5.030;2023-02-18T08:33:47;101727.09;;;9.48;100.00
71907;BME280;59781;52.090;5.030;2023-02-18T08:36:14;101728.22;;;9.65;100.00
71907;BME280;59781;52.090;5.030;2023-02-18T08:38:39;101720.31;;;9.54;100.00
71907;BME280;59781;52.090;5.030;2023-02-18T08:41:07;101731.31;;;9.70;100.00
71907;BME280;59781;52.090;5.030;2023-02-18T08:43:33;101711.38;;;9.54;100.00
71907;BME280;59781;52.090;5.030;2023-02-18T08:46:01;101719.16;;;9.57;100.00
71907;BME280;59781;52.090;5.030;2023-02-18T08:48:29;101712.66;;;9.59;100.00
71907;BME280;59781;52.090;5.030;2023-02-18T08:50:55;101719.84;;;9.68;100.00
71907;BME280;59781;52.090;5.030;2023-02-18T08:53:20;101724.09;;;9.61;100.00
71907;BME280;59781;52.090;5.030;2023-02-18T08:55:46;101731.63;;;9.67;100.00
71907;BME280;59781;52.090;5.030;2023-02-18T08:58:12;101736.31;;;9.56;100.00
71907;BME280;59781;52.090;5.030;2023-02-18T09:00:39;101735.16;;;9.58;100.00
71907;BME280;59781;52.090;5.030;2023-02-18T09:03:06;101749.59;;;9.67;100.00
71907;BME280;59781;52.090;5.030;2023-02-18T09:05:32;101733.16;;;9.60;100.00
71907;BME280;59781;52.090;5.030;2023-02-18T09:07:58;101742.22;;;9.78;100.00
71907;BME280;59781;52.090;5.030;2023-02-18T09:10:24;101760.34;;;9.67;100.00
71907;BME280;59781;52.090;5.030;2023-02-18T09:12:49;101756.94;;;9.74;100.00
71907;BME280;59781;52.090;5.030;2023-02-18T09:15:15;101744.44;;;9.93;100.00
71907;BME280;59781;52.090;5.030;2023-02-18T09:17:41;101756.34;;;9.90;100.00
71907;BME280;59781;52.090;5.030;2023-02-18T09:20:08;101754.94;;;9.86;100.00
71907;BME280;59781;52.090;5.030;2023-02-18T09:22:34;101746.19;;;9.74;100.00
71907;BME280;59781;52.090;5.030;2023-02-18T09:25:00;101756.81;;;9.76;100.00
71907;BME280;59781;52.090;5.030;2023-02-18T09:27:25;101756.19;;;9.92;100.00
71907;BME280;59781;52.090;5.030;2023-02-18T09:29:51;101747.25;;;10.01;100.00
71907;BME280;59781;52.090;5.030;2023-02-18T09:32:17;101756.91;;;10.03;100.00
71907;BME280;59781;52.090;5.030;2023-02-18T09:34:44;101747.09;;;10.12;100.00
71907;BME280;59781;52.090;5.030;2023-02-18T09:37:10;101750.34;;;10.25;100.00
71907;BME280;59781;52.090;5.030;2023-02-18T09:39:36;101760.13;;;10.17;100.00
71907;BME280;59781;52.090;5.030;2023-02-18T09:42:15;101748.69;;;10.05;100.00
71907;BME280;59781;52.090;5.030;2023-02-18T09:44:51;101760.28;;;10.05;100.00
71907;BME280;59781;52.090;5.030;2023-02-18T09:47:30;101763.13;;;10.14;100.00
71907;BME280;59781;52.090;5.030;2023-02-18T09:52:45;101773.44;;;10.09;100.00
71907;BME280;59781;52.090;5.030;2023-02-18T09:55:24;101751.78;;;10.10;100.00
71907;BME280;59781;52.090;5.030;2023-02-18T09:58:01;101774.28;;;10.19;100.00
71907;BME280;59781;52.090;5.030;2023-02-18T10:00:48;101771.19;;;10.14;100.00
71907;BME280;59781;52.090;5.030;2023-02-18T10:03:24;101769.91;;;10.27;100.00
71907;BME280;59781;52.090;5.030;2023-02-18T10:08:38;101768.13;;;10.46;100.00
71907;BME280;59781;52.090;5.030;2023-02-18T10:11:12;101784.03;;;10.20;100.00
71907;BME280;59781;52.090;5.030;2023-02-18T10:13:43;101776.81;;;10.20;100.00
71907;BME280;59781;52.090;5.030;2023-02-18T10:16:15;101773.28;;;10.20;100.00
71907;BME280;59781;52.090;5.030;2023-02-18T10:18:45;101784.34;;;10.17;100.00
71907;BME280;59781;52.090;5.030;2023-02-18T10:21:35;101778.97;;;10.26;100.00
71907;BME280;59781;52.090;5.030;2023-02-18T10:24:05;101784.03;;;10.20;100.00
71907;BME280;59781;52.090;5.030;2023-02-18T10:26:42;101797.28;;;10.23;100.00
71907;BME280;59781;52.090;5.030;2023-02-18T10:29:15;101798.13;;;10.23;100.00
71907;BME280;59781;52.090;5.030;2023-02-18T10:31:51;101794.09;;;10.37;100.00
71907;BME280;59781;52.090;5.030;2023-02-18T10:34:46;101798.19;;;10.41;100.00
71907;BME280;59781;52.090;5.030;2023-02-18T10:43:25;101811.50;;;10.52;100.00
71907;BME280;59781;52.090;5.030;2023-02-18T10:46:33;101797.59;;;10.47;100.00
71907;BME280;59781;52.090;5.030;2023-02-18T10:52:17;101783.88;;;10.78;100.00
71907;BME280;59781;52.090;5.030;2023-02-18T10:55:11;101789.78;;;10.81;100.00
71907;BME280;59781;52.090;5.030;2023-02-18T11:00:19;101772.47;;;11.29;100.00
71907;BME280;59781;52.090;5.030;2023-02-18T11:03:14;101780.09;;;11.16;100.00
71907;BME280;59781;52.090;5.030;2023-02-18T11:05:45;101781.69;;;11.09;100.00
71907;BME280;59781;52.090;5.030;2023-02-18T11:08:38;101790.22;;;10.86;100.00
71907;BME280;59781;52.090;5.030;2023-02-18T11:11:15;101781.31;;;11.04;100.00
71907;BME280;59781;52.090;5.030;2023-02-18T11:13:52;101786.56;;;11.05;100.00
71907;BME280;59781;52.090;5.030;2023-02-18T11:16:38;101782.13;;;11.14;100.00
71907;BME280;59781;52.090;5.030;2023-02-18T11:22:18;101793.84;;;10.95;100.00
71907;BME280;59781;52.090;5.030;2023-02-18T11:24:46;101789.41;;;11.04;100.00
71907;BME280;59781;52.090;5.030;2023-02-18T11:27:23;101800.09;;;10.96;100.00
71907;BME280;59781;52.090;5.030;2023-02-18T11:30:04;101798.25;;;10.96;100.00
71907;BME280;59781;52.090;5.030;2023-02-18T11:32:41;101795.13;;;10.91;100.00
71907;BME280;59781;52.090;5.030;2023-02-18T11:35:20;101794.25;;;11.00;100.00
71907;BME280;59781;52.090;5.030;2023-02-18T11:37:49;101807.69;;;10.82;100.00
71907;BME280;59781;52.090;5.030;2023-02-18T11:40:33;101800.03;;;10.78;100.00
71907;BME280;59781;52.090;5.030;2023-02-18T11:43:09;101804.22;;;10.90;100.00
71907;BME280;59781;52.090;5.030;2023-02-18T11:45:39;101796.59;;;10.85;100.00
71907;BME280;59781;52.090;5.030;2023-02-18T11:51:00;101790.72;;;11.17;100.00
71907;BME280;59781;52.090;5.030;2023-02-18T11:53:30;101796.88;;;11.10;100.00
71907;BME280;59781;52.090;5.030;2023-02-18T11:56:09;101797.69;;;11.56;100.00
71907;BME280;59781;52.090;5.030;2023-02-18T11:58:45;101788.75;;;11.37;100.00
71907;BME280;59781;52.090;5.030;2023-02-18T12:04:18;101786.59;;;11.76;99.34
71907;BME280;59781;52.090;5.030;2023-02-18T12:09:27;101793.22;;;11.64;100.00
71907;BME280;59781;52.090;5.030;2023-02-18T12:12:05;101775.09;;;11.39;100.00
71907;BME280;59781;52.090;5.030;2023-02-18T12:14:36;101788.16;;;11.43;100.00
71907;BME280;59781;52.090;5.030;2023-02-18T12:32:12;101772.31;;;12.02;98.43
71907;BME280;59781;52.090;5.030;2023-02-18T12:38:39;101780.16;;;12.39;97.55
71907;BME280;59781;52.090;5.030;2023-02-18T12:53:29;101780.66;;;13.11;90.83
71907;BME280;59781;52.090;5.030;2023-02-18T12:56:34;101782.59;;;12.50;94.20
71907;BME280;59781;52.090;5.030;2023-02-18T13:08:34;101787.78;;;12.18;97.20
71907;BME280;59781;52.090;5.030;2023-02-18T13:11:41;101786.50;;;12.04;98.42
71907;BME280;59781;52.090;5.030;2023-02-18T13:14:30;101792.63;;;11.88;98.46
71907;BME280;59781;52.090;5.030;2023-02-18T13:17:09;101796.94;;;12.25;96.99
71907;BME280;59781;52.090;5.030;2023-02-18T13:19:44;101791.94;;;12.64;94.77
71907;BME280;59781;52.090;5.030;2023-02-18T13:22:19;101799.38;;;12.62;94.96
71907;BME280;59781;52.090;5.030;2023-02-18T13:24:50;101786.19;;;12.67;95.81
71907;BME280;59781;52.090;5.030;2023-02-18T13:31:04;101788.50;;;12.54;95.33
71907;BME280;59781;52.090;5.030;2023-02-18T13:33:39;101785.06;;;12.44;95.91
71907;BME280;59781;52.090;5.030;2023-02-18T13:36:31;101788.78;;;12.43;96.07
71907;BME280;59781;52.090;5.030;2023-02-18T13:39:17;101796.09;;;12.50;95.13
71907;BME280;59781;52.090;5.030;2023-02-18T13:41:48;101792.06;;;12.54;95.37
71907;BME280;59781;52.090;5.030;2023-02-18T13:46:53;101784.34;;;12.59;93.95
71907;BME280;59781;52.090;5.030;2023-02-18T13:49:27;101790.97;;;12.73;94.52
71907;BME280;59781;52.090;5.030;2023-02-18T13:52:00;101796.75;;;12.78;94.34
71907;BME280;59781;52.090;5.030;2023-02-18T13:54:33;101804.66;;;12.72;93.94
71907;BME280;59781;52.090;5.030;2023-02-18T13:57:15;101793.88;;;12.46;95.01
71907;BME280;59781;52.090;5.030;2023-02-18T13:59:55;101792.63;;;12.66;94.35
71907;BME280;59781;52.090;5.030;2023-02-18T14:20:49;101805.22;;;12.83;94.32
71907;BME280;59781;52.090;5.030;2023-02-18T14:25:56;101801.94;;;12.72;93.86
71907;BME280;59781;52.090;5.030;2023-02-18T14:31:02;101807.28;;;12.98;92.30
71907;BME280;59781;52.090;5.030;2023-02-18T14:33:34;101799.72;;;12.67;94.76
71907;BME280;59781;52.090;5.030;2023-02-18T14:42:23;101801.38;;;12.94;93.31
71907;BME280;59781;52.090;5.030;2023-02-18T14:51:39;101810.47;;;12.51;95.17
71907;BME280;59781;52.090;5.030;2023-02-18T14:54:15;101812.94;;;12.44;95.97
71907;BME280;59781;52.090;5.030;2023-02-18T14:59:39;101815.91;;;12.33;95.99
71907;BME280;59781;52.090;5.030;2023-02-18T15:02:23;101815.50;;;12.20;96.71
71907;BME280;59781;52.090;5.030;2023-02-18T15:05:11;101810.34;;;12.34;95.93
71907;BME280;59781;52.090;5.030;2023-02-18T15:07:56;101821.56;;;12.22;97.19
71907;BME280;59781;52.090;5.030;2023-02-18T15:10:44;101821.00;;;12.10;97.28
71907;BME280;59781;52.090;5.030;2023-02-18T15:15:58;101815.13;;;11.97;97.56
71907;BME280;59781;52.090;5.030;2023-02-18T15:21:12;101821.38;;;11.80;98.28
71907;BME280;59781;52.090;5.030;2023-02-18T15:23:45;101822.59;;;11.67;98.70
71907;BME280;59781;52.090;5.030;2023-02-18T15:26:15;101810.13;;;11.84;98.31
71907;BME280;59781;52.090;5.030;2023-02-18T15:28:57;101825.84;;;11.89;98.60
71907;BME280;59781;52.090;5.030;2023-02-18T15:31:28;101814.84;;;11.82;98.75
71907;BME280;59781;52.090;5.030;2023-02-18T15:33:55;101821.50;;;11.78;98.50
71907;BME280;59781;52.090;5.030;2023-02-18T15:36:20;101814.03;;;11.54;99.33
71907;BME280;59781;52.090;5.030;2023-02-18T15:38:46;101814.28;;;11.43;99.82
71907;BME280;59781;52.090;5.030;2023-02-18T15:41:19;101820.03;;;11.30;100.00
71907;BME280;59781;52.090;5.030;2023-02-18T15:44:00;101818.34;;;11.47;100.00
71907;BME280;59781;52.090;5.030;2023-02-18T15:46:31;101820.19;;;11.46;100.00